sensor_id;sensor_type;location;lat;lon;timestamp;P1;durP1;ratioP1;P2;durP2;ratioP2
13263;SDS011;6700;51.988;7.646;2023-03-19T00:00:45;26.53;;;23.97;;
13263;SDS011;6700;51.988;7.646;2023-03-19T00:03:12;25.23;;;22.67;;
13263;SDS011;6700;51.988;7.646;2023-03-19T00:05:39;26.53;;;23.83;;
13263;SDS011;6700;51.988;7.646;2023-03-19T00:08:06;25.43;;;22.83;;
13263;SDS011;6700;51.988;7.646;2023-03-19T00:10:36;25.10;;;22.50;;
13263;SDS011;6700;51.988;7.646;2023-03-19T00:13:05;24.37;;;22.07;;
13263;SDS011;6700;51.988;7.646;2023-03-19T00:15:33;23.20;;;20.80;;
13263;SDS011;6700;51.988;7.646;2023-03-19T00:18:01;24.23;;;21.93;;
13263;SDS011;6700;51.988;7.646;2023-03-19T00:20:30;23.87;;;21.47;;
13263;SDS011;6700;51.988;7.646;2023-03-19T00:22:58;22.43;;;20.20;;
13263;SDS011;6700;51.988;7.646;2023-03-19T00:25:29;36.43;;;28.53;;
13263;SDS011;6700;51.988;7.646;2023-03-19T00:27:57;31.70;;;26.20;;
13263;SDS011;6700;51.988;7.646;2023-03-19T00:30:26;26.27;;;23.57;;
13263;SDS011;6700;51.988;7.646;2023-03-19T00:32:56;42.93;;;36.73;;
13263;SDS011;6700;51.988;7.646;2023-03-19T00:35:37;32.60;;;29.00;;
13263;SDS011;6700;51.988;7.646;2023-03-19T00:38:05;33.83;;;28.43;;
13263;SDS011;6700;51.988;7.646;2023-03-19T00:40:44;31.73;;;27.40;;
13263;SDS011;6700;51.988;7.646;2023-03-19T00:43:11;28.53;;;25.63;;
13263;SDS011;6700;51.988;7.646;2023-03-19T00:45:38;26.13;;;23.53;;
13263;SDS011;6700;51.988;7.646;2023-03-19T00:48:06;25.13;;;22.53;;
13263;SDS011;6700;51.988;7.646;2023-03-19T00:50:33;24.30;;;21.80;;
13263;SDS011;6700;51.988;7.646;2023-03-19T00:53:00;23.43;;;20.97;;
13263;SDS011;6700;51.988;7.646;2023-03-19T00:55:28;22.33;;;20.23;;
13263;SDS011;6700;51.988;7.646;2023-03-19T00:57:55;24.60;;;19.80;;
13263;SDS011;6700;51.988;7.646;2023-03-19T01:00:22;21.03;;;19.13;;
13263;SDS011;6700;51.988;7.646;2023-03-19T01:02:49;21.93;;;18.57;;
13263;SDS011;6700;51.988;7.646;2023-03-19T01:05:16;20.27;;;18.10;;
13263;SDS011;6700;51.988;7.646;2023-03-19T01:07:44;18.57;;;16.37;;
13263;SDS011;6700;51.988;7.646;2023-03-19T01:10:11;20.03;;;17.47;;
13263;SDS011;6700;51.988;7.646;2023-03-19T01:12:41;18.67;;;16.87;;
13263;SDS011;6700;51.988;7.646;2023-03-19T01:15:08;20.10;;;16.33;;
13263;SDS011;6700;51.988;7.646;2023-03-19T01:17:35;17.80;;;15.93;;
13263;SDS011;6700;51.988;7.646;2023-03-19T01:20:07;17.40;;;15.70;;
13263;SDS011;6700;51.988;7.646;2023-03-19T01:22:40;17.80;;;16.13;;
13263;SDS011;6700;51.988;7.646;2023-03-19T01:25:09;17.30;;;15.70;;
13263;SDS011;6700;51.988;7.646;2023-03-19T01:27:38;16.73;;;15.00;;
13263;SDS011;6700;51.988;7.646;2023-03-19T01:30:08;21.07;;;15.90;;
13263;SDS011;6700;51.988;7.646;2023-03-19T01:32:35;15.93;;;14.30;;
13263;SDS011;6700;51.988;7.646;2023-03-19T01:35:03;19.47;;;14.37;;
13263;SDS011;6700;51.988;7.646;2023-03-19T01:37:30;21.97;;;14.97;;
13263;SDS011;6700;51.988;7.646;2023-03-19T01:39:59;18.97;;;14.67;;
13263;SDS011;6700;51.988;7.646;2023-03-19T01:42:26;16.13;;;14.57;;
13263;SDS011;6700;51.988;7.646;2023-03-19T01:44:53;15.90;;;13.63;;
13263;SDS011;6700;51.988;7.646;2023-03-19T01:47:30;14.43;;;13.00;;
13263;SDS011;6700;51.988;7.646;2023-03-19T01:49:58;15.20;;;13.53;;
13263;SDS011;6700;51.988;7.646;2023-03-19T01:52:27;16.67;;;13.57;;
13263;SDS011;6700;51.988;7.646;2023-03-19T01:54:55;13.80;;;12.40;;
13263;SDS011;6700;51.988;7.646;2023-03-19T01:57:24;14.27;;;12.80;;
13263;SDS011;6700;51.988;7.646;2023-03-19T01:59:52;15.93;;;13.00;;
13263;SDS011;6700;51.988;7.646;2023-03-19T02:02:29;15.90;;;14.20;;
13263;SDS011;6700;51.988;7.646;2023-03-19T02:05:04;18.60;;;13.77;;
13263;SDS011;6700;51.988;7.646;2023-03-19T02:07:33;15.77;;;13.17;;
13263;SDS011;6700;51.988;7.646;2023-03-19T02:10:04;14.73;;;13.33;;
13263;SDS011;6700;51.988;7.646;2023-03-19T02:12:32;14.97;;;13.13;;
13263;SDS011;6700;51.988;7.646;2023-03-19T02:15:03;14.73;;;13.23;;
13263;SDS011;6700;51.988;7.646;2023-03-19T02:17:30;15.03;;;13.40;;
13263;SDS011;6700;51.988;7.646;2023-03-19T02:22:51;14.30;;;13.00;;
13263;SDS011;6700;51.988;7.646;2023-03-19T02:28:16;16.00;;;13.53;;
13263;SDS011;6700;51.988;7.646;2023-03-19T02:30:44;15.43;;;13.83;;
13263;SDS011;6700;51.988;7.646;2023-03-19T02:33:12;14.80;;;13.30;;
13263;SDS011;6700;51.988;7.646;2023-03-19T02:35:39;18.50;;;14.57;;
13263;SDS011;6700;51.988;7.646;2023-03-19T02:38:08;14.97;;;13.40;;
13263;SDS011;6700;51.988;7.646;2023-03-19T02:40:37;15.50;;;13.90;;
13263;SDS011;6700;51.988;7.646;2023-03-19T02:43:05;15.00;;;13.50;;
13263;SDS011;6700;51.988;7.646;2023-03-19T02:45:33;15.93;;;14.20;;
13263;SDS011;6700;51.988;7.646;2023-03-19T02:48:01;16.97;;;15.23;;
13263;SDS011;6700;51.988;7.646;2023-03-19T02:50:28;16.87;;;14.13;;
13263;SDS011;6700;51.988;7.646;2023-03-19T02:52:56;15.63;;;14.00;;
13263;SDS011;6700;51.988;7.646;2023-03-19T02:55:23;15.23;;;13.73;;
13263;SDS011;6700;51.988;7.646;2023-03-19T02:57:52;15.67;;;14.07;;
13263;SDS011;6700;51.988;7.646;2023-03-19T03:00:20;16.43;;;13.23;;
13263;SDS011;6700;51.988;7.646;2023-03-19T03:02:47;15.27;;;13.67;;
13263;SDS011;6700;51.988;7.646;2023-03-19T03:05:14;14.87;;;13.37;;
13263;SDS011;6700;51.988;7.646;2023-03-19T03:07:41;15.20;;;13.37;;
13263;SDS011;6700;51.988;7.646;2023-03-19T03:10:10;15.57;;;14.00;;
13263;SDS011;6700;51.988;7.646;2023-03-19T03:12:37;17.23;;;13.50;;
13263;SDS011;6700;51.988;7.646;2023-03-19T03:15:05;14.97;;;13.53;;
13263;SDS011;6700;51.988;7.646;2023-03-19T03:17:36;14.70;;;12.33;;
13263;SDS011;6700;51.988;7.646;2023-03-19T03:20:04;14.37;;;12.97;;
13263;SDS011;6700;51.988;7.646;2023-03-19T03:22:31;14.30;;;11.83;;
13263;SDS011;6700;51.988;7.646;2023-03-19T03:24:58;18.03;;;13.60;;
13263;SDS011;6700;51.988;7.646;2023-03-19T03:27:26;16.40;;;12.80;;
13263;SDS011;6700;51.988;7.646;2023-03-19T03:29:56;14.07;;;12.43;;
13263;SDS011;6700;51.988;7.646;2023-03-19T03:32:27;13.77;;;12.37;;
13263;SDS011;6700;51.988;7.646;2023-03-19T03:34:54;14.30;;;12.63;;
13263;SDS011;6700;51.988;7.646;2023-03-19T03:37:21;15.70;;;13.97;;
13263;SDS011;6700;51.988;7.646;2023-03-19T03:39:48;18.17;;;13.27;;
13263;SDS011;6700;51.988;7.646;2023-03-19T03:42:18;14.70;;;13.00;;
13263;SDS011;6700;51.988;7.646;2023-03-19T03:44:45;15.10;;;13.47;;
13263;SDS011;6700;51.988;7.646;2023-03-19T03:47:15;14.87;;;13.47;;
13263;SDS011;6700;51.988;7.646;2023-03-19T03:49:43;16.90;;;14.50;;
13263;SDS011;6700;51.988;7.646;2023-03-19T03:52:10;15.63;;;14.03;;
13263;SDS011;6700;51.988;7.646;2023-03-19T03:54:38;16.17;;;14.53;;
13263;SDS011;6700;51.988;7.646;2023-03-19T03:57:05;14.77;;;13.40;;
13263;SDS011;6700;51.988;7.646;2023-03-19T03:59:35;15.40;;;13.40;;
13263;SDS011;6700;51.988;7.646;2023-03-19T04:02:02;15.63;;;14.03;;
13263;SDS011;6700;51.988;7.646;2023-03-19T04:04:31;14.80;;;13.30;;
13263;SDS011;6700;51.988;7.646;2023-03-19T04:06:59;15.20;;;13.70;;
13263;SDS011;6700;51.988;7.646;2023-03-19T04:09:26;15.50;;;13.43;;
13263;SDS011;6700;51.988;7.646;2023-03-19T04:11:53;14.73;;;13.27;;
13263;SDS011;6700;51.988;7.646;2023-03-19T04:14:21;14.83;;;13.33;;
13263;SDS011;6700;51.988;7.646;2023-03-19T04:16:49;15.43;;;14.03;;
13263;SDS011;6700;51.988;7.646;2023-03-19T04:19:18;20.13;;;14.90;;
13263;SDS011;6700;51.988;7.646;2023-03-19T04:21:48;15.27;;;13.67;;
13263;SDS011;6700;51.988;7.646;2023-03-19T04:24:15;14.57;;;13.07;;
13263;SDS011;6700;51.988;7.646;2023-03-19T04:26:44;16.67;;;13.70;;
13263;SDS011;6700;51.988;7.646;2023-03-19T04:29:13;15.80;;;14.20;;
13263;SDS011;6700;51.988;7.646;2023-03-19T04:31:43;15.93;;;14.07;;
13263;SDS011;6700;51.988;7.646;2023-03-19T04:34:11;15.47;;;13.77;;
13263;SDS011;6700;51.988;7.646;2023-03-19T04:36:38;16.33;;;14.27;;
13263;SDS011;6700;51.988;7.646;2023-03-19T04:39:08;15.47;;;13.10;;
13263;SDS011;6700;51.988;7.646;2023-03-19T04:41:39;14.97;;;13.47;;
13263;SDS011;6700;51.988;7.646;2023-03-19T04:44:06;16.00;;;14.37;;
13263;SDS011;6700;51.988;7.646;2023-03-19T04:46:33;16.17;;;13.40;;
13263;SDS011;6700;51.988;7.646;2023-03-19T04:49:01;15.67;;;14.00;;
13263;SDS011;6700;51.988;7.646;2023-03-19T04:51:28;15.87;;;14.37;;
13263;SDS011;6700;51.988;7.646;2023-03-19T04:53:55;20.23;;;14.50;;
13263;SDS011;6700;51.988;7.646;2023-03-19T04:56:22;15.53;;;13.93;;
13263;SDS011;6700;51.988;7.646;2023-03-19T04:58:49;15.40;;;12.80;;
13263;SDS011;6700;51.988;7.646;2023-03-19T05:01:17;14.33;;;13.00;;
13263;SDS011;6700;51.988;7.646;2023-03-19T05:03:44;15.37;;;13.93;;
13263;SDS011;6700;51.988;7.646;2023-03-19T05:06:11;15.03;;;13.63;;
13263;SDS011;6700;51.988;7.646;2023-03-19T05:08:38;15.27;;;13.70;;
13263;SDS011;6700;51.988;7.646;2023-03-19T05:11:06;15.17;;;13.77;;
13263;SDS011;6700;51.988;7.646;2023-03-19T05:13:33;14.47;;;13.07;;
13263;SDS011;6700;51.988;7.646;2023-03-19T05:16:00;14.40;;;13.00;;
13263;SDS011;6700;51.988;7.646;2023-03-19T05:18:28;16.10;;;14.57;;
13263;SDS011;6700;51.988;7.646;2023-03-19T05:20:55;14.80;;;13.30;;
13263;SDS011;6700;51.988;7.646;2023-03-19T05:23:23;16.10;;;14.40;;
13263;SDS011;6700;51.988;7.646;2023-03-19T05:25:51;15.40;;;13.97;;
13263;SDS011;6700;51.988;7.646;2023-03-19T05:28:18;14.43;;;13.23;;
13263;SDS011;6700;51.988;7.646;2023-03-19T05:30:45;15.63;;;14.13;;
13263;SDS011;6700;51.988;7.646;2023-03-19T05:33:12;15.23;;;13.63;;
13263;SDS011;6700;51.988;7.646;2023-03-19T05:35:39;15.17;;;13.57;;
13263;SDS011;6700;51.988;7.646;2023-03-19T05:38:06;15.67;;;14.10;;
13263;SDS011;6700;51.988;7.646;2023-03-19T05:40:34;15.00;;;13.70;;
13263;SDS011;6700;51.988;7.646;2023-03-19T05:43:01;14.60;;;13.13;;
13263;SDS011;6700;51.988;7.646;2023-03-19T05:45:29;16.20;;;13.20;;
13263;SDS011;6700;51.988;7.646;2023-03-19T05:47:56;15.97;;;13.13;;
13263;SDS011;6700;51.988;7.646;2023-03-19T05:50:26;17.97;;;12.83;;
13263;SDS011;6700;51.988;7.646;2023-03-19T05:52:53;14.30;;;12.73;;
13263;SDS011;6700;51.988;7.646;2023-03-19T05:55:20;13.73;;;12.33;;
13263;SDS011;6700;51.988;7.646;2023-03-19T05:57:48;13.13;;;12.00;;
13263;SDS011;6700;51.988;7.646;2023-03-19T06:00:15;13.20;;;12.00;;
13263;SDS011;6700;51.988;7.646;2023-03-19T06:02:42;15.57;;;12.23;;
13263;SDS011;6700;51.988;7.646;2023-03-19T06:05:10;13.20;;;11.93;;
13263;SDS011;6700;51.988;7.646;2023-03-19T06:07:37;13.27;;;11.23;;
13263;SDS011;6700;51.988;7.646;2023-03-19T06:10:04;12.83;;;11.53;;
13263;SDS011;6700;51.988;7.646;2023-03-19T06:12:31;13.63;;;11.90;;
13263;SDS011;6700;51.988;7.646;2023-03-19T06:14:58;13.60;;;12.37;;
13263;SDS011;6700;51.988;7.646;2023-03-19T06:17:26;13.80;;;12.40;;
13263;SDS011;6700;51.988;7.646;2023-03-19T06:19:53;13.67;;;12.27;;
13263;SDS011;6700;51.988;7.646;2023-03-19T06:22:20;13.00;;;11.70;;
13263;SDS011;6700;51.988;7.646;2023-03-19T06:24:47;13.50;;;12.20;;
13263;SDS011;6700;51.988;7.646;2023-03-19T06:27:15;13.27;;;11.57;;
13263;SDS011;6700;51.988;7.646;2023-03-19T06:29:42;14.23;;;12.93;;
13263;SDS011;6700;51.988;7.646;2023-03-19T06:32:09;14.63;;;11.50;;
13263;SDS011;6700;51.988;7.646;2023-03-19T06:34:36;13.17;;;11.70;;
13263;SDS011;6700;51.988;7.646;2023-03-19T06:37:03;12.50;;;11.33;;
13263;SDS011;6700;51.988;7.646;2023-03-19T06:39:30;12.97;;;11.77;;
13263;SDS011;6700;51.988;7.646;2023-03-19T06:41:58;12.47;;;11.37;;
13263;SDS011;6700;51.988;7.646;2023-03-19T06:44:25;12.53;;;11.30;;
13263;SDS011;6700;51.988;7.646;2023-03-19T06:46:52;11.63;;;10.53;;
13263;SDS011;6700;51.988;7.646;2023-03-19T06:49:19;12.03;;;10.87;;
13263;SDS011;6700;51.988;7.646;2023-03-19T06:51:47;12.37;;;10.63;;
13263;SDS011;6700;51.988;7.646;2023-03-19T06:54:14;14.17;;;11.20;;
13263;SDS011;6700;51.988;7.646;2023-03-19T06:56:41;12.73;;;11.43;;
13263;SDS011;6700;51.988;7.646;2023-03-19T06:59:08;13.97;;;10.93;;
13263;SDS011;6700;51.988;7.646;2023-03-19T07:01:40;15.20;;;10.17;;
13263;SDS011;6700;51.988;7.646;2023-03-19T07:04:07;10.70;;;9.70;;
13263;SDS011;6700;51.988;7.646;2023-03-19T07:06:35;9.60;;;8.20;;
13263;SDS011;6700;51.988;7.646;2023-03-19T07:09:02;8.20;;;6.27;;
13263;SDS011;6700;51.988;7.646;2023-03-19T07:11:29;7.63;;;5.70;;
13263;SDS011;6700;51.988;7.646;2023-03-19T07:14:00;9.40;;;5.73;;
13263;SDS011;6700;51.988;7.646;2023-03-19T07:16:28;7.63;;;5.13;;
13263;SDS011;6700;51.988;7.646;2023-03-19T07:18:55;6.90;;;5.77;;
13263;SDS011;6700;51.988;7.646;2023-03-19T07:21:22;8.43;;;5.47;;
13263;SDS011;6700;51.988;7.646;2023-03-19T07:23:49;7.43;;;5.53;;
13263;SDS011;6700;51.988;7.646;2023-03-19T07:26:16;8.27;;;5.63;;
13263;SDS011;6700;51.988;7.646;2023-03-19T07:28:44;6.30;;;5.40;;
13263;SDS011;6700;51.988;7.646;2023-03-19T07:31:11;7.07;;;6.07;;
13263;SDS011;6700;51.988;7.646;2023-03-19T07:33:38;9.13;;;6.33;;
13263;SDS011;6700;51.988;7.646;2023-03-19T07:36:06;7.67;;;6.97;;
13263;SDS011;6700;51.988;7.646;2023-03-19T07:38:33;8.70;;;7.80;;
13263;SDS011;6700;51.988;7.646;2023-03-19T07:41:00;9.03;;;7.57;;
13263;SDS011;6700;51.988;7.646;2023-03-19T07:43:28;9.20;;;8.30;;
13263;SDS011;6700;51.988;7.646;2023-03-19T07:45:56;12.83;;;7.77;;
13263;SDS011;6700;51.988;7.646;2023-03-19T07:48:23;11.07;;;8.87;;
13263;SDS011;6700;51.988;7.646;2023-03-19T07:50:51;8.87;;;7.97;;
13263;SDS011;6700;51.988;7.646;2023-03-19T07:53:19;10.03;;;7.43;;
13263;SDS011;6700;51.988;7.646;2023-03-19T07:55:46;9.77;;;7.10;;
13263;SDS011;6700;51.988;7.646;2023-03-19T07:58:14;8.67;;;6.77;;
13263;SDS011;6700;51.988;7.646;2023-03-19T08:00:42;8.90;;;6.40;;
13263;SDS011;6700;51.988;7.646;2023-03-19T08:03:10;9.57;;;7.00;;
13263;SDS011;6700;51.988;7.646;2023-03-19T08:05:37;8.93;;;6.67;;
13263;SDS011;6700;51.988;7.646;2023-03-19T08:08:04;9.50;;;6.77;;
13263;SDS011;6700;51.988;7.646;2023-03-19T08:10:32;7.47;;;6.67;;
13263;SDS011;6700;51.988;7.646;2023-03-19T08:13:02;7.63;;;6.80;;
13263;SDS011;6700;51.988;7.646;2023-03-19T08:15:30;11.67;;;7.27;;
13263;SDS011;6700;51.988;7.646;2023-03-19T08:18:00;10.20;;;6.30;;
13263;SDS011;6700;51.988;7.646;2023-03-19T08:20:28;7.60;;;6.80;;
13263;SDS011;6700;51.988;7.646;2023-03-19T08:22:55;7.33;;;6.40;;
13263;SDS011;6700;51.988;7.646;2023-03-19T08:25:23;8.87;;;6.33;;
13263;SDS011;6700;51.988;7.646;2023-03-19T08:27:51;9.43;;;6.93;;
13263;SDS011;6700;51.988;7.646;2023-03-19T08:30:18;8.97;;;6.20;;
13263;SDS011;6700;51.988;7.646;2023-03-19T08:32:45;7.43;;;6.60;;
13263;SDS011;6700;51.988;7.646;2023-03-19T08:35:14;8.83;;;6.83;;
13263;SDS011;6700;51.988;7.646;2023-03-19T08:37:42;7.73;;;7.00;;
13263;SDS011;6700;51.988;7.646;2023-03-19T08:40:09;11.97;;;7.83;;
13263;SDS011;6700;51.988;7.646;2023-03-19T08:42:36;8.67;;;7.90;;
13263;SDS011;6700;51.988;7.646;2023-03-19T08:45:11;8.27;;;7.33;;
13263;SDS011;6700;51.988;7.646;2023-03-19T08:47:38;8.10;;;7.30;;
13263;SDS011;6700;51.988;7.646;2023-03-19T08:50:06;8.17;;;7.37;;
13263;SDS011;6700;51.988;7.646;2023-03-19T08:52:33;7.90;;;7.10;;
13263;SDS011;6700;51.988;7.646;2023-03-19T08:55:00;8.43;;;7.53;;
13263;SDS011;6700;51.988;7.646;2023-03-19T08:57:29;8.03;;;7.23;;
13263;SDS011;6700;51.988;7.646;2023-03-19T08:59:56;8.17;;;7.37;;
13263;SDS011;6700;51.988;7.646;2023-03-19T09:02:23;11.13;;;8.00;;
13263;SDS011;6700;51.988;7.646;2023-03-19T09:04:50;8.70;;;7.77;;
13263;SDS011;6700;51.988;7.646;2023-03-19T09:07:17;8.93;;;7.97;;
13263;SDS011;6700;51.988;7.646;2023-03-19T09:09:45;9.73;;;8.73;;
13263;SDS011;6700;51.988;7.646;2023-03-19T09:12:13;11.90;;;10.63;;
13263;SDS011;6700;51.988;7.646;2023-03-19T09:14:40;14.33;;;9.60;;
13263;SDS011;6700;51.988;7.646;2023-03-19T09:17:08;13.67;;;12.13;;
13263;SDS011;6700;51.988;7.646;2023-03-19T09:19:35;14.13;;;12.70;;
13263;SDS011;6700;51.988;7.646;2023-03-19T09:22:03;14.90;;;13.10;;
13263;SDS011;6700;51.988;7.646;2023-03-19T09:24:30;18.63;;;15.73;;
13263;SDS011;6700;51.988;7.646;2023-03-19T09:26:57;19.87;;;16.03;;
13263;SDS011;6700;51.988;7.646;2023-03-19T09:29:24;19.03;;;16.27;;
13263;SDS011;6700;51.988;7.646;2023-03-19T09:31:53;20.03;;;17.67;;
13263;SDS011;6700;51.988;7.646;2023-03-19T09:34:20;19.77;;;17.63;;
13263;SDS011;6700;51.988;7.646;2023-03-19T09:36:47;23.67;;;21.27;;
13263;SDS011;6700;51.988;7.646;2023-03-19T09:39:14;22.03;;;19.67;;
13263;SDS011;6700;51.988;7.646;2023-03-19T09:44:30;28.27;;;21.67;;
13263;SDS011;6700;51.988;7.646;2023-03-19T09:49:37;24.57;;;20.50;;
13263;SDS011;6700;51.988;7.646;2023-03-19T09:54:50;23.97;;;20.23;;
13263;SDS011;6700;51.988;7.646;2023-03-19T09:57:18;22.30;;;19.63;;
13263;SDS011;6700;51.988;7.646;2023-03-19T09:59:46;24.90;;;21.87;;
13263;SDS011;6700;51.988;7.646;2023-03-19T10:05:05;23.30;;;19.70;;
13263;SDS011;6700;51.988;7.646;2023-03-19T10:10:17;27.03;;;24.03;;
13263;SDS011;6700;51.988;7.646;2023-03-19T10:12:54;27.57;;;24.57;;
13263;SDS011;6700;51.988;7.646;2023-03-19T10:15:29;25.97;;;23.33;;
13263;SDS011;6700;51.988;7.646;2023-03-19T10:18:15;24.23;;;21.83;;
13263;SDS011;6700;51.988;7.646;2023-03-19T10:20:45;23.87;;;21.30;;
13263;SDS011;6700;51.988;7.646;2023-03-19T10:23:28;23.53;;;21.03;;
13263;SDS011;6700;51.988;7.646;2023-03-19T10:25:57;24.17;;;21.67;;
13263;SDS011;6700;51.988;7.646;2023-03-19T10:28:26;23.50;;;21.00;;
13263;SDS011;6700;51.988;7.646;2023-03-19T10:30:56;23.23;;;20.80;;
13263;SDS011;6700;51.988;7.646;2023-03-19T10:33:31;23.83;;;21.33;;
13263;SDS011;6700;51.988;7.646;2023-03-19T10:36:03;27.20;;;24.23;;
13263;SDS011;6700;51.988;7.646;2023-03-19T10:38:31;28.57;;;24.23;;
13263;SDS011;6700;51.988;7.646;2023-03-19T10:43:25;28.90;;;25.97;;
13263;SDS011;6700;51.988;7.646;2023-03-19T10:45:53;31.03;;;27.70;;
13263;SDS011;6700;51.988;7.646;2023-03-19T10:48:23;28.57;;;25.47;;
13263;SDS011;6700;51.988;7.646;2023-03-19T10:55:54;27.90;;;25.07;;
13263;SDS011;6700;51.988;7.646;2023-03-19T10:58:24;26.03;;;23.33;;
13263;SDS011;6700;51.988;7.646;2023-03-19T11:01:25;26.03;;;23.43;;
13263;SDS011;6700;51.988;7.646;2023-03-19T11:03:49;26.40;;;23.70;;
13263;SDS011;6700;51.988;7.646;2023-03-19T11:06:27;26.13;;;23.43;;
13263;SDS011;6700;51.988;7.646;2023-03-19T11:14:06;28.47;;;25.40;;
13263;SDS011;6700;51.988;7.646;2023-03-19T11:19:21;25.83;;;23.37;;
13263;SDS011;6700;51.988;7.646;2023-03-19T11:22:06;25.17;;;22.77;;
13263;SDS011;6700;51.988;7.646;2023-03-19T11:24:38;25.77;;;23.27;;
13263;SDS011;6700;51.988;7.646;2023-03-19T11:27:05;24.73;;;22.33;;
13263;SDS011;6700;51.988;7.646;2023-03-19T11:29:37;25.60;;;23.07;;
13263;SDS011;6700;51.988;7.646;2023-03-19T11:50:21;26.53;;;23.90;;
13263;SDS011;6700;51.988;7.646;2023-03-19T11:53:09;26.20;;;23.40;;
13263;SDS011;6700;51.988;7.646;2023-03-19T11:55:40;24.93;;;22.63;;
13263;SDS011;6700;51.988;7.646;2023-03-19T12:00:54;23.83;;;21.63;;
13263;SDS011;6700;51.988;7.646;2023-03-19T12:05:59;25.17;;;22.67;;
13263;SDS011;6700;51.988;7.646;2023-03-19T12:11:22;20.47;;;18.57;;
13263;SDS011;6700;51.988;7.646;2023-03-19T12:13:56;19.83;;;18.03;;
13263;SDS011;6700;51.988;7.646;2023-03-19T12:16:44;18.47;;;16.90;;
13263;SDS011;6700;51.988;7.646;2023-03-19T12:19:29;19.57;;;17.67;;
13263;SDS011;6700;51.988;7.646;2023-03-19T12:22:03;20.20;;;17.93;;
13263;SDS011;6700;51.988;7.646;2023-03-19T12:27:21;19.03;;;17.30;;
13263;SDS011;6700;51.988;7.646;2023-03-19T12:29:58;19.30;;;17.50;;
13263;SDS011;6700;51.988;7.646;2023-03-19T12:35:13;17.73;;;16.23;;
13263;SDS011;6700;51.988;7.646;2023-03-19T12:37:45;33.67;;;30.57;;
13263;SDS011;6700;51.988;7.646;2023-03-19T12:40:22;20.33;;;18.33;;
13263;SDS011;6700;51.988;7.646;2023-03-19T12:42:54;24.10;;;22.00;;
13263;SDS011;6700;51.988;7.646;2023-03-19T12:45:31;18.03;;;16.53;;
13263;SDS011;6700;51.988;7.646;2023-03-19T12:48:04;17.70;;;16.00;;
13263;SDS011;6700;51.988;7.646;2023-03-19T12:50:35;14.03;;;12.63;;
13263;SDS011;6700;51.988;7.646;2023-03-19T12:53:04;135.83;;;76.03;;
13263;SDS011;6700;51.988;7.646;2023-03-19T12:55:40;24.97;;;22.10;;
13263;SDS011;6700;51.988;7.646;2023-03-19T12:58:19;20.20;;;17.33;;
13263;SDS011;6700;51.988;7.646;2023-03-19T13:03:32;21.60;;;17.93;;
13263;SDS011;6700;51.988;7.646;2023-03-19T13:06:07;18.53;;;16.77;;
13263;SDS011;6700;51.988;7.646;2023-03-19T13:11:28;40.10;;;29.90;;
13263;SDS011;6700;51.988;7.646;2023-03-19T13:19:26;15.27;;;13.97;;
13263;SDS011;6700;51.988;7.646;2023-03-19T13:21:57;14.37;;;13.10;;
13263;SDS011;6700;51.988;7.646;2023-03-19T13:26:55;9.33;;;8.53;;
13263;SDS011;6700;51.988;7.646;2023-03-19T13:29:24;10.40;;;9.60;;
13263;SDS011;6700;51.988;7.646;2023-03-19T13:31:52;10.10;;;9.20;;
13263;SDS011;6700;51.988;7.646;2023-03-19T13:34:26;10.40;;;9.50;;
13263;SDS011;6700;51.988;7.646;2023-03-19T13:37:09;10.43;;;9.40;;
13263;SDS011;6700;51.988;7.646;2023-03-19T13:39:38;10.57;;;9.67;;
13263;SDS011;6700;51.988;7.646;2023-03-19T13:42:34;9.13;;;8.43;;
13263;SDS011;6700;51.988;7.646;2023-03-19T13:45:27;9.17;;;8.47;;
13263;SDS011;6700;51.988;7.646;2023-03-19T13:48:19;8.70;;;8.00;;
13263;SDS011;6700;51.988;7.646;2023-03-19T13:50:53;9.17;;;8.47;;
13263;SDS011;6700;51.988;7.646;2023-03-19T13:53:22;8.47;;;7.77;;
13263;SDS011;6700;51.988;7.646;2023-03-19T13:55:59;9.60;;;8.70;;
13263;SDS011;6700;51.988;7.646;2023-03-19T13:58:27;9.97;;;9.07;;
13263;SDS011;6700;51.988;7.646;2023-03-19T14:01:36;9.80;;;8.90;;
13263;SDS011;6700;51.988;7.646;2023-03-19T14:04:02;9.43;;;8.63;;
13263;SDS011;6700;51.988;7.646;2023-03-19T14:06:44;8.37;;;7.50;;
13263;SDS011;6700;51.988;7.646;2023-03-19T14:09:28;7.97;;;7.20;;
13263;SDS011;6700;51.988;7.646;2023-03-19T14:14:40;6.50;;;5.90;;
13263;SDS011;6700;51.988;7.646;2023-03-19T14:17:53;7.40;;;6.70;;
13263;SDS011;6700;51.988;7.646;2023-03-19T14:19:55;7.37;;;6.33;;
13263;SDS011;6700;51.988;7.646;2023-03-19T14:22:34;6.77;;;6.10;;
13263;SDS011;6700;51.988;7.646;2023-03-19T14:25:10;7.67;;;6.37;;
13263;SDS011;6700;51.988;7.646;2023-03-19T14:27:43;9.83;;;8.83;;
13263;SDS011;6700;51.988;7.646;2023-03-19T14:30:17;10.73;;;9.73;;
13263;SDS011;6700;51.988;7.646;2023-03-19T14:32:44;7.87;;;7.10;;
13263;SDS011;6700;51.988;7.646;2023-03-19T14:35:14;7.73;;;7.03;;
13263;SDS011;6700;51.988;7.646;2023-03-19T14:37:45;37.20;;;23.80;;
13263;SDS011;6700;51.988;7.646;2023-03-19T14:40:24;21.00;;;16.30;;
13263;SDS011;6700;51.988;7.646;2023-03-19T14:42:57;29.67;;;21.90;;
13263;SDS011;6700;51.988;7.646;2023-03-19T14:53:24;10.80;;;9.70;;
13263;SDS011;6700;51.988;7.646;2023-03-19T14:55:56;18.97;;;12.67;;
13263;SDS011;6700;51.988;7.646;2023-03-19T14:58:28;16.77;;;10.73;;
13263;SDS011;6700;51.988;7.646;2023-03-19T15:00:55;11.20;;;10.20;;
13263;SDS011;6700;51.988;7.646;2023-03-19T15:05:59;20.90;;;16.97;;
13263;SDS011;6700;51.988;7.646;2023-03-19T15:08:28;12.00;;;10.57;;
13263;SDS011;6700;51.988;7.646;2023-03-19T15:11:01;13.73;;;10.87;;
13263;SDS011;6700;51.988;7.646;2023-03-19T15:16:17;9.37;;;8.57;;
13263;SDS011;6700;51.988;7.646;2023-03-19T15:18:48;8.13;;;7.33;;
13263;SDS011;6700;51.988;7.646;2023-03-19T15:21:15;11.30;;;7.83;;
13263;SDS011;6700;51.988;7.646;2023-03-19T15:23:46;8.27;;;6.80;;
13263;SDS011;6700;51.988;7.646;2023-03-19T15:26:13;8.07;;;7.27;;
13263;SDS011;6700;51.988;7.646;2023-03-19T15:28:47;7.40;;;6.70;;
13263;SDS011;6700;51.988;7.646;2023-03-19T15:31:15;9.33;;;8.47;;
13263;SDS011;6700;51.988;7.646;2023-03-19T15:33:58;7.90;;;7.10;;
13263;SDS011;6700;51.988;7.646;2023-03-19T15:36:30;8.20;;;7.50;;
13263;SDS011;6700;51.988;7.646;2023-03-19T15:38:59;8.10;;;7.37;;
13263;SDS011;6700;51.988;7.646;2023-03-19T15:41:29;7.20;;;6.50;;
13263;SDS011;6700;51.988;7.646;2023-03-19T15:43:58;6.87;;;6.17;;
13263;SDS011;6700;51.988;7.646;2023-03-19T15:46:30;6.73;;;6.13;;
13263;SDS011;6700;51.988;7.646;2023-03-19T15:49:02;7.03;;;6.33;;
13263;SDS011;6700;51.988;7.646;2023-03-19T15:51:32;9.17;;;8.27;;
13263;SDS011;6700;51.988;7.646;2023-03-19T15:53:59;7.27;;;6.57;;
13263;SDS011;6700;51.988;7.646;2023-03-19T15:56:28;6.77;;;6.17;;
13263;SDS011;6700;51.988;7.646;2023-03-19T15:58:57;7.50;;;6.33;;
13263;SDS011;6700;51.988;7.646;2023-03-19T16:01:24;8.70;;;6.17;;
13263;SDS011;6700;51.988;7.646;2023-03-19T16:03:59;8.37;;;5.90;;
13263;SDS011;6700;51.988;7.646;2023-03-19T16:06:28;6.53;;;5.93;;
13263;SDS011;6700;51.988;7.646;2023-03-19T16:09:06;6.93;;;6.33;;
13263;SDS011;6700;51.988;7.646;2023-03-19T16:11:34;10.83;;;6.50;;
13263;SDS011;6700;51.988;7.646;2023-03-19T16:16:34;23.80;;;10.37;;
13263;SDS011;6700;51.988;7.646;2023-03-19T16:19:03;17.93;;;8.47;;
13263;SDS011;6700;51.988;7.646;2023-03-19T16:21:32;6.17;;;5.50;;
13263;SDS011;6700;51.988;7.646;2023-03-19T16:24:02;5.33;;;4.83;;
13263;SDS011;6700;51.988;7.646;2023-03-19T16:26:39;4.97;;;4.47;;
13263;SDS011;6700;51.988;7.646;2023-03-19T16:31:44;4.80;;;4.20;;
13263;SDS011;6700;51.988;7.646;2023-03-19T16:36:48;5.17;;;4.73;;
13263;SDS011;6700;51.988;7.646;2023-03-19T16:39:32;5.40;;;4.70;;